createdAt,value
2022-09-27T00:00:31.995Z,16.47
2022-09-27T00:03:04.650Z,15.77
2022-09-27T00:05:38.647Z,16.23
2022-09-27T00:08:10.124Z,15.67
2022-09-27T00:10:41.962Z,15.93
2022-09-27T00:13:13.475Z,16.00
2022-09-27T00:15:45.006Z,17.10
2022-09-27T00:18:18.187Z,16.23
2022-09-27T00:20:53.072Z,16.47
2022-09-27T00:23:25.007Z,16.77
2022-09-27T00:26:00.904Z,16.37
2022-09-27T00:28:32.671Z,16.60
2022-09-27T00:31:04.310Z,17.60
2022-09-27T00:33:39.325Z,16.23
2022-09-27T00:36:15.257Z,17.53
2022-09-27T00:38:47.831Z,17.77
2022-09-27T00:41:21.033Z,17.47
2022-09-27T00:43:54.484Z,17.00
2022-09-27T00:46:32.297Z,17.50
2022-09-27T00:49:19.566Z,16.53
2022-09-27T00:51:58.256Z,16.60
2022-09-27T00:54:32.700Z,17.80
2022-09-27T00:57:04.609Z,17.30
2022-09-27T00:59:42.625Z,16.80
2022-09-27T01:02:15.279Z,16.37
2022-09-27T01:04:49.564Z,17.00
2022-09-27T01:07:23.533Z,16.87
2022-09-27T01:09:55.226Z,17.63
2022-09-27T01:12:31.800Z,18.60
2022-09-27T01:15:15.347Z,18.70
2022-09-27T01:17:58.193Z,17.03
2022-09-27T01:21:09.762Z,17.73
2022-09-27T01:24:31.206Z,16.80
2022-09-27T01:27:31.091Z,18.00
2022-09-27T01:30:30.261Z,17.30
2022-09-27T01:33:21.531Z,17.67
2022-09-27T01:36:04.327Z,17.47
2022-09-27T01:38:44.587Z,16.80
2022-09-27T01:41:30.717Z,17.07
2022-09-27T01:44:08.025Z,17.33
2022-09-27T01:46:43.056Z,18.20
2022-09-27T01:49:20.866Z,17.27
2022-09-27T01:51:57.141Z,17.97
2022-09-27T01:54:31.292Z,17.10
2022-09-27T01:57:05.344Z,17.47
2022-09-27T01:59:42.805Z,16.80
2022-09-27T02:02:15.188Z,17.33
2022-09-27T02:04:51.320Z,17.87
2022-09-27T02:07:27.226Z,17.40
2022-09-27T02:10:07.730Z,18.10
2022-09-27T02:12:47.642Z,17.70
2022-09-27T02:15:18.776Z,17.40
2022-09-27T02:18:00.359Z,18.97
2022-09-27T02:20:37.372Z,20.90
2022-09-27T02:23:17.654Z,23.53
2022-09-27T02:25:54.696Z,22.83
2022-09-27T02:28:30.802Z,22.93
2022-09-27T02:31:01.659Z,20.97
2022-09-27T02:33:38.109Z,21.93
2022-09-27T02:36:12.671Z,22.80
2022-09-27T02:38:44.109Z,20.03
2022-09-27T02:41:19.352Z,19.73
2022-09-27T02:43:56.107Z,17.90
2022-09-27T02:46:44.321Z,16.73
2022-09-27T02:49:33.081Z,17.43
2022-09-27T02:52:16.758Z,16.57
2022-09-27T02:54:55.928Z,16.07
2022-09-27T02:57:38.160Z,16.40
2022-09-27T03:00:12.960Z,16.27
2022-09-27T03:02:55.288Z,15.80
2022-09-27T03:05:30.251Z,15.33
2022-09-27T03:08:04.006Z,15.57
2022-09-27T03:10:35.685Z,16.27
2022-09-27T03:13:07.056Z,16.30
2022-09-27T03:15:38.307Z,14.63
2022-09-27T03:18:10.274Z,16.30
2022-09-27T03:20:41.227Z,16.73
2022-09-27T03:23:14.507Z,15.87
2022-09-27T03:25:48.618Z,16.03
2022-09-27T03:28:19.729Z,16.00
2022-09-27T03:30:51.180Z,15.10
2022-09-27T03:33:21.953Z,14.83
2022-09-27T03:35:53.157Z,15.10
2022-09-27T03:38:26.449Z,14.97
2022-09-27T03:40:57.361Z,15.80
2022-09-27T03:43:30.677Z,15.97
2022-09-27T03:46:01.870Z,16.77
2022-09-27T03:48:33.405Z,15.07
2022-09-27T03:51:05.576Z,16.70
2022-09-27T03:53:39.021Z,16.20
2022-09-27T03:56:10.623Z,15.50
2022-09-27T03:58:41.750Z,16.07
2022-09-27T04:01:15.009Z,16.93
2022-09-27T04:03:46.858Z,16.73
2022-09-27T04:06:19.542Z,16.77
2022-09-27T04:08:53.783Z,17.47
2022-09-27T04:11:25.523Z,17.13
2022-09-27T04:13:57.428Z,17.90
2022-09-27T04:16:28.679Z,17.47
2022-09-27T04:18:59.834Z,17.83
2022-09-27T04:21:31.582Z,16.37
2022-09-27T04:24:08.009Z,16.53
2022-09-27T04:26:39.710Z,17.70
2022-09-27T04:29:11.942Z,17.57
2022-09-27T04:31:43.684Z,17.13
2022-09-27T04:34:14.754Z,17.27
2022-09-27T04:36:44.601Z,17.43
2022-09-27T04:39:18.092Z,16.73
2022-09-27T04:41:49.823Z,17.10
2022-09-27T04:44:22.078Z,17.57
2022-09-27T04:46:53.174Z,18.00
2022-09-27T04:49:24.157Z,18.07
2022-09-27T04:51:55.315Z,18.80
2022-09-27T04:54:30.319Z,17.70
2022-09-27T04:57:01.818Z,18.00
2022-09-27T04:59:32.837Z,17.30
2022-09-27T05:02:04.407Z,19.20
2022-09-27T05:04:35.798Z,17.53
2022-09-27T05:07:07.001Z,18.10
2022-09-27T05:09:40.805Z,17.50
2022-09-27T05:12:13.484Z,17.77
2022-09-27T05:14:46.366Z,18.60
2022-09-27T05:17:17.616Z,17.73
2022-09-27T05:19:48.667Z,18.13
2022-09-27T05:22:20.313Z,17.33
2022-09-27T05:24:56.359Z,17.80
2022-09-27T05:27:27.403Z,17.97
2022-09-27T05:29:59.094Z,17.47
2022-09-27T05:32:30.203Z,16.97
2022-09-27T05:35:01.250Z,16.97
2022-09-27T05:37:34.751Z,17.00
2022-09-27T05:40:22.902Z,16.83
2022-09-27T05:43:00.605Z,18.03
2022-09-27T05:45:32.886Z,17.13
2022-09-27T05:48:03.525Z,16.77
2022-09-27T05:50:35.068Z,16.60
2022-09-27T05:53:07.025Z,18.20
2022-09-27T05:55:40.277Z,16.83
2022-09-27T05:58:17.517Z,16.90
2022-09-27T06:00:49.013Z,16.27
2022-09-27T06:03:20.713Z,17.23
2022-09-27T06:05:52.133Z,16.90
2022-09-27T06:08:23.245Z,17.10
2022-09-27T06:11:05.346Z,17.63
2022-09-27T06:13:37.325Z,16.63
2022-09-27T06:16:09.226Z,16.83
2022-09-27T06:18:40.287Z,15.67
2022-09-27T06:21:11.285Z,16.40
2022-09-27T06:23:43.327Z,16.77
2022-09-27T06:26:16.779Z,16.83
2022-09-27T06:28:48.241Z,16.30
2022-09-27T06:31:20.253Z,16.53
2022-09-27T06:33:51.985Z,16.50
2022-09-27T06:36:23.752Z,17.20
2022-09-27T06:38:55.052Z,16.70
2022-09-27T06:41:27.958Z,16.93
2022-09-27T06:43:59.006Z,16.23
2022-09-27T06:46:30.398Z,16.43
2022-09-27T06:49:03.246Z,16.73
2022-09-27T06:51:34.177Z,16.47
2022-09-27T06:54:04.697Z,16.47
2022-09-27T06:56:39.124Z,15.60
2022-09-27T06:59:26.604Z,16.50
2022-09-27T07:01:57.389Z,16.10
2022-09-27T07:04:28.557Z,17.00
2022-09-27T07:07:00.244Z,17.33
2022-09-27T07:09:31.509Z,17.57
2022-09-27T07:12:04.894Z,16.63
2022-09-27T07:14:37.009Z,17.77
2022-09-27T07:17:07.933Z,17.03
2022-09-27T07:19:39.445Z,17.27
2022-09-27T07:22:10.607Z,17.33
2022-09-27T07:24:44.450Z,17.27
2022-09-27T07:27:19.195Z,17.10
2022-09-27T07:29:50.621Z,17.07
2022-09-27T07:32:21.801Z,17.03
2022-09-27T07:34:53.376Z,16.97
2022-09-27T07:37:24.714Z,16.53
2022-09-27T07:39:55.661Z,16.47
2022-09-27T07:42:29.756Z,17.03
2022-09-27T07:45:01.391Z,16.97
2022-09-27T07:47:33.076Z,17.53
2022-09-27T07:50:05.061Z,17.13
2022-09-27T07:52:43.982Z,16.77
2022-09-27T07:55:17.298Z,17.53
2022-09-27T07:57:50.405Z,17.50
2022-09-27T08:00:22.717Z,17.20
2022-09-27T08:02:53.818Z,16.43
2022-09-27T08:05:25.852Z,17.70
2022-09-27T08:08:02.199Z,16.73
2022-09-27T08:10:33.489Z,16.93
2022-09-27T08:13:07.981Z,17.00
2022-09-27T08:15:40.085Z,17.07
2022-09-27T08:18:12.485Z,16.47
2022-09-27T08:20:43.575Z,16.20
2022-09-27T08:23:14.679Z,16.37
2022-09-27T08:25:46.372Z,16.13
2022-09-27T08:28:21.100Z,17.30
2022-09-27T08:30:51.900Z,16.57
2022-09-27T08:33:33.504Z,16.93
2022-09-27T08:36:06.571Z,16.67
2022-09-27T08:38:37.444Z,16.77
2022-09-27T08:41:15.392Z,16.60
2022-09-27T08:43:56.855Z,16.77
2022-09-27T08:46:36.363Z,17.50
2022-09-27T08:49:12.705Z,16.53
2022-09-27T08:51:45.833Z,16.90
2022-09-27T08:54:23.547Z,16.73
2022-09-27T08:56:57.955Z,17.03
2022-09-27T08:59:39.022Z,16.40
2022-09-27T09:02:19.590Z,16.60
2022-09-27T09:04:54.013Z,17.27
2022-09-27T09:07:45.155Z,17.40
2022-09-27T09:10:50.985Z,17.37
2022-09-27T09:13:34.545Z,16.70
2022-09-27T09:16:17.319Z,17.00
2022-09-27T09:19:04.517Z,16.23
2022-09-27T09:21:48.670Z,16.63
2022-09-27T09:24:36.849Z,17.13
2022-09-27T09:27:16.557Z,16.47
2022-09-27T09:30:07.959Z,16.67
2022-09-27T09:32:53.726Z,15.67
2022-09-27T09:35:31.393Z,16.87
2022-09-27T09:38:06.445Z,17.63
2022-09-27T09:40:44.186Z,17.53
2022-09-27T09:43:22.097Z,17.13
2022-09-27T09:45:58.591Z,16.77
2022-09-27T09:48:40.942Z,16.00
2022-09-27T09:51:19.325Z,16.40
2022-09-27T09:53:57.781Z,16.17
2022-09-27T09:56:34.056Z,16.60
2022-09-27T09:59:08.721Z,16.57
2022-09-27T10:01:44.438Z,16.27
2022-09-27T10:04:22.953Z,16.20
2022-09-27T10:06:55.226Z,16.20
2022-09-27T10:09:29.137Z,16.57
2022-09-27T10:12:00.257Z,16.43
2022-09-27T10:14:32.354Z,16.47
2022-09-27T10:17:06.575Z,16.13
2022-09-27T10:19:41.386Z,15.30
2022-09-27T10:22:21.995Z,17.07
2022-09-27T10:25:02.984Z,16.83
2022-09-27T10:27:44.480Z,16.80
2022-09-27T10:30:30.946Z,16.20
2022-09-27T10:33:07.733Z,15.67
2022-09-27T10:35:46.031Z,16.93
2022-09-27T10:38:27.730Z,16.40
2022-09-27T10:40:59.808Z,16.97
2022-09-27T10:43:33.434Z,16.13
2022-09-27T10:46:15.910Z,16.57
2022-09-27T10:48:47.025Z,16.27
2022-09-27T10:51:38.494Z,16.63
2022-09-27T10:54:20.055Z,16.47
2022-09-27T10:57:00.185Z,16.93
2022-09-27T10:59:33.099Z,18.17
2022-09-27T11:02:04.715Z,16.60
2022-09-27T11:04:38.942Z,18.20
2022-09-27T11:07:19.157Z,16.87
2022-09-27T11:09:54.280Z,17.13
2022-09-27T11:12:26.321Z,17.53
2022-09-27T11:15:01.246Z,17.53
2022-09-27T11:17:41.513Z,16.77
2022-09-27T11:20:24.312Z,17.43
2022-09-27T11:23:37.112Z,17.67
2022-09-27T11:26:34.795Z,17.83
2022-09-27T11:29:18.286Z,17.37
2022-09-27T11:32:05.894Z,16.47
2022-09-27T11:34:54.772Z,17.10
2022-09-27T11:37:39.073Z,16.63
2022-09-27T11:40:23.020Z,17.53
2022-09-27T11:43:19.637Z,17.47
2022-09-27T11:46:17.519Z,18.40
2022-09-27T11:49:18.480Z,17.50
2022-09-27T11:52:03.082Z,17.93
2022-09-27T11:54:52.550Z,17.60
2022-09-27T11:57:30.286Z,17.40
2022-09-27T12:00:23.370Z,17.07
2022-09-27T12:03:38.845Z,17.37
2022-09-27T12:06:14.955Z,17.33
2022-09-27T12:08:59.464Z,16.80
2022-09-27T12:11:34.166Z,18.37
2022-09-27T12:14:13.075Z,17.97
2022-09-27T12:16:47.368Z,17.53
2022-09-27T12:19:23.989Z,18.43
2022-09-27T12:21:56.510Z,16.63
2022-09-27T12:24:30.209Z,17.57
2022-09-27T12:27:06.407Z,17.10
2022-09-27T12:29:42.793Z,17.63
2022-09-27T12:32:21.201Z,17.37
2022-09-27T12:34:59.610Z,17.67
2022-09-27T12:37:34.901Z,17.37
2022-09-27T12:40:16.795Z,17.47
2022-09-27T12:42:52.976Z,16.87
2022-09-27T12:45:38.843Z,16.77
2022-09-27T12:48:17.649Z,16.93
2022-09-27T12:50:52.830Z,16.30
2022-09-27T12:53:28.366Z,16.13
2022-09-27T12:56:20.023Z,15.93
2022-09-27T12:59:17.799Z,14.93
2022-09-27T13:02:06.149Z,14.93
2022-09-27T13:04:57.615Z,15.20
2022-09-27T13:07:45.445Z,15.00
2022-09-27T13:10:42.532Z,15.87
2022-09-27T13:13:17.719Z,15.27
2022-09-27T13:15:50.791Z,15.77
2022-09-27T13:19:02.320Z,14.67
2022-09-27T13:22:00.435Z,14.80
2022-09-27T13:24:53.413Z,14.73
2022-09-27T13:27:43.105Z,14.77
2022-09-27T13:30:53.240Z,14.87
2022-09-27T13:33:50.061Z,14.53
2022-09-27T13:36:33.371Z,15.40
2022-09-27T13:39:28.222Z,15.30
2022-09-27T13:42:11.177Z,16.37
2022-09-27T13:44:56.691Z,15.77
2022-09-27T13:47:38.597Z,16.23
2022-09-27T13:50:28.984Z,16.53
2022-09-27T13:53:07.954Z,15.63
2022-09-27T13:55:48.259Z,16.50
2022-09-27T13:58:33.287Z,16.57
2022-09-27T14:01:09.871Z,16.53
2022-09-27T14:03:50.234Z,16.43
2022-09-27T14:06:33.746Z,16.47
2022-09-27T14:09:08.840Z,16.23
2022-09-27T14:11:42.596Z,15.33
2022-09-27T14:14:20.465Z,17.30
2022-09-27T14:16:52.515Z,16.17
2022-09-27T14:19:26.507Z,14.50
2022-09-27T14:22:01.210Z,15.83
2022-09-27T14:24:34.228Z,15.20
2022-09-27T14:27:18.302Z,14.57
2022-09-27T14:29:54.205Z,15.53
2022-09-27T14:32:26.666Z,16.00
2022-09-27T14:35:30.210Z,14.63
2022-09-27T14:38:20.736Z,14.37
2022-09-27T14:41:05.075Z,14.33
2022-09-27T14:43:37.701Z,15.10
2022-09-27T14:46:10.750Z,14.93
2022-09-27T14:48:43.458Z,15.30
2022-09-27T14:51:25.327Z,15.80
2022-09-27T14:54:05.099Z,16.47
2022-09-27T14:56:39.040Z,15.53
2022-09-27T14:59:17.985Z,15.57
2022-09-27T15:01:53.600Z,15.03
2022-09-27T15:04:27.477Z,15.53
2022-09-27T15:07:00.325Z,15.17
2022-09-27T15:09:35.582Z,15.73
2022-09-27T15:12:09.621Z,15.30
2022-09-27T15:14:43.648Z,15.20
2022-09-27T15:17:21.895Z,14.20
2022-09-27T15:20:04.818Z,14.07
2022-09-27T15:22:44.839Z,15.37
2022-09-27T15:25:37.128Z,15.60
2022-09-27T15:28:11.485Z,17.40
2022-09-27T15:30:46.691Z,15.73
2022-09-27T15:33:24.387Z,15.87
2022-09-27T15:35:57.336Z,16.07
2022-09-27T15:38:34.025Z,15.27
2022-09-27T15:41:14.246Z,15.10
2022-09-27T15:43:51.199Z,15.37
2022-09-27T15:46:49.588Z,15.47
2022-09-27T15:49:45.032Z,15.07
2022-09-27T15:52:44.056Z,15.13
2022-09-27T15:55:15.641Z,14.67
2022-09-27T15:57:52.240Z,14.97
2022-09-27T16:00:23.798Z,15.57
2022-09-27T16:02:54.934Z,17.50
2022-09-27T16:05:28.672Z,17.10
2022-09-27T16:08:00.755Z,18.03
2022-09-27T16:10:40.192Z,18.73
2022-09-27T16:13:14.782Z,18.40
2022-09-27T16:15:45.809Z,19.30
2022-09-27T16:18:17.472Z,19.27
2022-09-27T16:20:49.161Z,19.47
2022-09-27T16:23:21.855Z,18.57
2022-09-27T16:25:55.104Z,20.63
2022-09-27T16:28:28.171Z,19.43
2022-09-27T16:31:03.613Z,21.50
2022-09-27T16:33:35.565Z,20.47
2022-09-27T16:36:15.147Z,20.80
2022-09-27T16:38:46.732Z,22.20
2022-09-27T16:41:17.607Z,22.33
2022-09-27T16:43:50.925Z,21.57
2022-09-27T16:46:22.829Z,22.60
2022-09-27T16:48:53.893Z,20.77
2022-09-27T16:51:41.795Z,19.97
2022-09-27T16:54:16.656Z,19.50
2022-09-27T16:56:54.528Z,20.30
2022-09-27T16:59:30.003Z,21.00
2022-09-27T17:02:01.797Z,22.13
2022-09-27T17:04:33.316Z,22.40
2022-09-27T17:07:04.512Z,23.33
2022-09-27T17:09:35.678Z,23.27
2022-09-27T17:12:11.256Z,23.43
2022-09-27T17:14:45.825Z,24.50
2022-09-27T17:17:16.683Z,27.33
2022-09-27T17:19:49.545Z,25.83
2022-09-27T17:22:21.408Z,27.60
2022-09-27T17:24:52.250Z,28.50
2022-09-27T17:27:25.892Z,30.63
2022-09-27T17:30:00.213Z,30.23
2022-09-27T17:32:31.974Z,31.30
2022-09-27T17:35:04.240Z,31.40
2022-09-27T17:37:35.737Z,27.70
2022-09-27T17:40:07.130Z,34.43
2022-09-27T17:42:38.144Z,36.43
2022-09-27T17:45:13.013Z,33.37
2022-09-27T17:48:00.471Z,35.13
2022-09-27T17:50:32.363Z,36.83
2022-09-27T17:53:03.340Z,37.70
2022-09-27T17:55:34.750Z,34.00
2022-09-27T17:58:06.439Z,34.43
2022-09-27T18:00:39.831Z,34.23
2022-09-27T18:03:10.924Z,26.10
2022-09-27T18:05:42.189Z,25.30
2022-09-27T18:08:12.947Z,23.10
2022-09-27T18:10:44.875Z,20.33
2022-09-27T18:13:15.801Z,18.97
2022-09-27T18:16:00.394Z,17.93
2022-09-27T18:18:31.390Z,18.43
2022-09-27T18:21:05.586Z,17.90
2022-09-27T18:23:36.903Z,19.63
2022-09-27T18:26:09.846Z,18.40
2022-09-27T18:28:41.988Z,17.43
2022-09-27T18:31:18.013Z,17.90
2022-09-27T18:33:49.352Z,17.60
2022-09-27T18:36:21.926Z,17.30
2022-09-27T18:38:57.543Z,16.90
2022-09-27T18:41:30.574Z,17.37
2022-09-27T18:44:03.522Z,18.43
2022-09-27T18:46:38.151Z,16.73
2022-09-27T18:49:12.056Z,17.57
2022-09-27T18:51:45.376Z,17.23
2022-09-27T18:54:19.344Z,16.43
2022-09-27T18:56:51.730Z,17.27
2022-09-27T18:59:25.486Z,16.97
2022-09-27T19:01:59.062Z,16.60
2022-09-27T19:04:30.324Z,16.60
2022-09-27T19:07:01.682Z,16.33
2022-09-27T19:09:33.418Z,15.43
2022-09-27T19:12:05.873Z,14.87
2022-09-27T19:14:37.056Z,17.33
2022-09-27T19:17:10.403Z,17.37
2022-09-27T19:19:41.377Z,18.70
2022-09-27T19:22:12.576Z,18.33
2022-09-27T19:24:43.772Z,17.43
2022-09-27T19:27:15.147Z,20.63
2022-09-27T19:29:47.447Z,18.07
2022-09-27T19:32:37.001Z,13.90
2022-09-27T19:35:12.447Z,12.93
2022-09-27T19:37:43.471Z,14.83
2022-09-27T19:40:14.718Z,13.87
2022-09-27T19:42:46.071Z,13.43
2022-09-27T19:45:17.233Z,13.57
2022-09-27T19:47:51.562Z,17.63
2022-09-27T19:50:24.488Z,16.37
2022-09-27T19:52:55.667Z,16.53
2022-09-27T19:55:27.437Z,16.60
2022-09-27T19:58:00.971Z,17.40
2022-09-27T20:00:35.462Z,16.87
2022-09-27T20:03:21.667Z,17.63
2022-09-27T20:05:56.531Z,18.17
2022-09-27T20:08:28.348Z,18.30
2022-09-27T20:11:05.941Z,17.03
2022-09-27T20:13:39.704Z,16.57
2022-09-27T20:16:13.607Z,15.60
2022-09-27T20:18:48.299Z,15.60
2022-09-27T20:21:22.064Z,15.43
2022-09-27T20:23:54.470Z,16.63
2022-09-27T20:26:28.346Z,16.20
2022-09-27T20:29:01.369Z,17.27
2022-09-27T20:31:34.631Z,16.30
2022-09-27T20:34:09.508Z,16.50
2022-09-27T20:36:42.485Z,15.63
2022-09-27T20:39:14.802Z,16.00
2022-09-27T20:41:47.148Z,14.57
2022-09-27T20:44:20.350Z,15.97
2022-09-27T20:46:53.817Z,17.03
2022-09-27T20:49:28.361Z,13.90
2022-09-27T20:51:59.492Z,16.43
2022-09-27T20:54:31.038Z,17.47
2022-09-27T20:57:03.533Z,16.63
2022-09-27T20:59:34.416Z,16.70
2022-09-27T21:02:05.967Z,15.70
2022-09-27T21:04:39.161Z,12.33
2022-09-27T21:07:10.162Z,10.57
2022-09-27T21:09:41.200Z,11.67
2022-09-27T21:12:12.721Z,10.47
2022-09-27T21:14:44.525Z,9.67
2022-09-27T21:17:16.042Z,9.50
2022-09-27T21:19:49.825Z,8.97
2022-09-27T21:22:22.282Z,8.83
2022-09-27T21:24:53.658Z,8.53
2022-09-27T21:27:26.630Z,9.00
2022-09-27T21:29:58.235Z,9.30
2022-09-27T21:32:29.257Z,9.13
2022-09-27T21:35:03.910Z,8.80
2022-09-27T21:37:34.952Z,9.77
2022-09-27T21:40:07.105Z,9.20
2022-09-27T21:42:38.147Z,9.20
2022-09-27T21:45:09.944Z,9.50
2022-09-27T21:47:41.030Z,11.97
2022-09-27T21:50:14.642Z,10.80
2022-09-27T21:52:45.685Z,10.73
2022-09-27T21:55:18.523Z,9.67
2022-09-27T21:57:49.753Z,10.33
2022-09-27T22:00:22.819Z,10.13
2022-09-27T22:02:55.267Z,9.93
2022-09-27T22:05:31.969Z,10.10
2022-09-27T22:08:03.210Z,11.03
2022-09-27T22:10:35.797Z,10.73
2022-09-27T22:13:08.672Z,10.80
2022-09-27T22:15:40.576Z,10.53
2022-09-27T22:18:11.651Z,12.60
2022-09-27T22:20:44.980Z,10.77
2022-09-27T22:23:15.908Z,11.20
2022-09-27T22:25:46.676Z,11.27
2022-09-27T22:28:17.171Z,11.20
2022-09-27T22:30:47.890Z,12.10
2022-09-27T22:33:18.707Z,11.80
2022-09-27T22:35:51.432Z,11.67
2022-09-27T22:38:22.420Z,11.93
2022-09-27T22:40:58.253Z,11.93
2022-09-27T22:43:30.173Z,11.30
2022-09-27T22:46:03.215Z,11.83
2022-09-27T22:48:35.086Z,11.43
2022-09-27T22:51:10.272Z,10.93
2022-09-27T22:53:41.655Z,10.60
2022-09-27T22:56:16.288Z,10.43
2022-09-27T22:58:48.276Z,10.33
2022-09-27T23:01:21.247Z,11.17
2022-09-27T23:03:53.517Z,11.33
2022-09-27T23:06:26.517Z,11.57
2022-09-27T23:08:57.029Z,13.23
2022-09-27T23:11:27.932Z,12.63
2022-09-27T23:13:58.428Z,13.87
2022-09-27T23:16:29.018Z,14.77
2022-09-27T23:19:00.012Z,14.70
2022-09-27T23:21:32.963Z,14.60
2022-09-27T23:24:04.514Z,15.70
2022-09-27T23:26:35.057Z,13.80
2022-09-27T23:29:06.691Z,13.83
2022-09-27T23:31:37.852Z,13.47
2022-09-27T23:34:08.981Z,14.30
2022-09-27T23:36:41.501Z,13.93
2022-09-27T23:39:12.203Z,12.80
2022-09-27T23:41:43.210Z,12.50
2022-09-27T23:44:15.049Z,11.87
2022-09-27T23:46:46.002Z,11.70
2022-09-27T23:49:17.048Z,11.77
2022-09-27T23:51:49.236Z,12.03
2022-09-27T23:54:19.879Z,11.90
2022-09-27T23:56:51.071Z,12.03
2022-09-27T23:59:22.222Z,11.60
